createdAt,value
2023-02-11T00:01:37.352Z,98068.56
2023-02-11T00:04:06.484Z,98062.09
2023-02-11T00:06:36.826Z,98058.69
2023-02-11T00:09:05.568Z,98044.22
2023-02-11T00:11:33.111Z,98051.84
2023-02-11T00:14:02.900Z,98050.59
2023-02-11T00:16:31.886Z,98049.09
2023-02-11T00:19:00.039Z,98050.69
2023-02-11T00:21:28.449Z,98054.19
2023-02-11T00:23:59.693Z,98046.53
2023-02-11T00:26:30.108Z,98042.16
2023-02-11T00:28:58.003Z,98044.16
2023-02-11T00:31:26.537Z,98049.69
2023-02-11T00:33:54.551Z,98045.25
2023-02-11T00:36:24.403Z,98034.25
2023-02-11T00:38:53.935Z,98025.53
2023-02-11T00:41:23.586Z,98029.56
2023-02-11T00:43:51.988Z,98037.00
2023-02-11T00:46:21.082Z,98037.97
2023-02-11T00:48:49.028Z,98039.44
2023-02-11T00:51:16.625Z,98039.25
2023-02-11T00:53:44.318Z,98039.66
2023-02-11T00:56:11.841Z,98035.38
2023-02-11T00:58:40.716Z,98042.84
2023-02-11T01:01:08.507Z,98052.56
2023-02-11T01:03:36.082Z,98041.84
2023-02-11T01:06:03.927Z,98034.88
2023-02-11T01:08:31.576Z,98042.06
2023-02-11T01:11:01.416Z,98035.69
2023-02-11T01:13:29.769Z,98032.28
2023-02-11T01:15:59.060Z,98029.81
2023-02-11T01:18:27.685Z,98018.81
2023-02-11T01:20:55.755Z,98017.09
2023-02-11T01:23:23.399Z,98010.22
2023-02-11T01:25:51.770Z,98023.31
2023-02-11T01:28:21.875Z,98021.28
2023-02-11T01:30:49.537Z,98021.41
2023-02-11T01:33:18.787Z,98009.84
2023-02-11T01:35:46.423Z,98010.63
2023-02-11T01:38:17.746Z,97999.69
2023-02-11T01:40:48.733Z,97994.63
2023-02-11T01:43:16.224Z,97980.81
2023-02-11T01:45:59.804Z,97971.72
2023-02-11T01:48:32.802Z,97970.34
2023-02-11T01:51:03.847Z,97972.47
2023-02-11T01:53:50.958Z,97977.88
2023-02-11T01:56:38.725Z,97970.84
2023-02-11T01:59:12.436Z,97966.16
2023-02-11T02:01:43.019Z,97965.97
2023-02-11T02:04:13.999Z,97963.72
2023-02-11T02:06:47.219Z,97953.09
2023-02-11T02:09:21.010Z,97945.75
2023-02-11T02:11:48.624Z,97950.75
2023-02-11T02:14:16.148Z,97952.97
2023-02-11T02:16:43.788Z,97946.09
2023-02-11T02:19:51.512Z,97953.16
2023-02-11T02:22:48.717Z,97956.72
2023-02-11T02:25:37.038Z,97970.34
2023-02-11T02:28:19.531Z,97966.66
2023-02-11T02:31:16.674Z,97966.50
2023-02-11T02:33:54.315Z,97971.38
2023-02-11T02:36:29.384Z,97968.53
2023-02-11T02:39:00.346Z,97968.84
2023-02-11T02:41:31.147Z,97973.13
2023-02-11T02:43:58.827Z,97973.53
2023-02-11T02:46:28.455Z,97978.47
2023-02-11T02:48:58.245Z,97973.22
2023-02-11T02:51:46.877Z,97970.22
2023-02-11T02:54:50.921Z,97967.72
2023-02-11T02:57:30.740Z,97973.16
2023-02-11T03:00:14.544Z,97957.63
2023-02-11T03:02:53.260Z,97958.63
2023-02-11T03:05:26.867Z,97954.31
2023-02-11T03:08:02.670Z,97926.50
2023-02-11T03:10:35.117Z,97932.53
2023-02-11T03:13:04.195Z,97941.63
2023-02-11T03:15:35.033Z,97939.47
2023-02-11T03:18:04.836Z,97931.13
2023-02-11T03:20:37.015Z,97933.94
2023-02-11T03:23:08.323Z,97937.59
2023-02-11T03:25:38.726Z,97937.47
2023-02-11T03:28:14.794Z,97937.59
2023-02-11T03:30:48.058Z,97950.97
2023-02-11T03:33:21.136Z,97948.84
2023-02-11T03:35:55.262Z,97940.81
2023-02-11T03:38:26.148Z,97944.09
2023-02-11T03:40:56.873Z,97942.63
2023-02-11T03:43:29.667Z,97936.63
2023-02-11T03:45:58.715Z,97937.94
2023-02-11T03:48:30.827Z,97950.41
2023-02-11T03:51:02.561Z,97949.50
2023-02-11T03:53:30.070Z,97938.13
2023-02-11T03:56:01.128Z,97933.84
2023-02-11T03:58:28.683Z,97934.22
2023-02-11T04:00:56.264Z,97926.03
2023-02-11T04:03:23.820Z,97925.75
2023-02-11T04:05:51.541Z,97929.59
2023-02-11T04:08:20.519Z,97930.22
2023-02-11T04:10:48.027Z,97924.59
2023-02-11T04:13:15.601Z,97920.50
2023-02-11T04:15:43.153Z,97919.41
2023-02-11T04:18:10.776Z,97921.47
2023-02-11T04:20:38.341Z,97923.16
2023-02-11T04:23:05.874Z,97906.75
2023-02-11T04:25:34.677Z,97900.41
2023-02-11T04:28:02.286Z,97902.66
2023-02-11T04:30:29.811Z,97908.38
2023-02-11T04:32:58.782Z,97910.59
2023-02-11T04:35:26.637Z,97915.22
2023-02-11T04:37:54.113Z,97909.94
2023-02-11T04:40:21.614Z,97905.88
2023-02-11T04:42:50.526Z,97909.59
2023-02-11T04:45:18.055Z,97906.47
2023-02-11T04:47:45.572Z,97899.63
2023-02-11T04:50:13.145Z,97900.13
2023-02-11T04:52:40.658Z,97888.56
2023-02-11T04:55:08.714Z,97887.09
2023-02-11T04:57:36.225Z,97910.03
2023-02-11T05:00:05.824Z,97897.78
2023-02-11T05:02:33.434Z,97887.63
2023-02-11T05:05:00.947Z,97884.25
2023-02-11T05:07:28.462Z,97883.06
2023-02-11T05:09:55.962Z,97889.25
2023-02-11T05:12:23.446Z,97887.34
2023-02-11T05:14:50.971Z,97904.84
2023-02-11T05:17:19.773Z,97908.00
2023-02-11T05:19:47.295Z,97916.13
2023-02-11T05:22:14.782Z,97914.78
2023-02-11T05:24:42.261Z,97907.03
2023-02-11T05:27:10.187Z,97908.59
2023-02-11T05:29:37.908Z,97901.91
2023-02-11T05:32:07.289Z,97878.84
2023-02-11T05:34:36.281Z,97867.28
2023-02-11T05:37:03.783Z,97862.16
2023-02-11T05:39:31.282Z,97853.81
2023-02-11T05:41:58.765Z,97853.53
2023-02-11T05:44:26.330Z,97853.59
2023-02-11T05:46:53.867Z,97864.28
2023-02-11T05:49:21.428Z,97856.84
2023-02-11T05:51:50.334Z,97837.06
2023-02-11T05:54:17.976Z,97852.13
2023-02-11T05:56:45.466Z,97844.44
2023-02-11T05:59:14.847Z,97864.28
2023-02-11T06:01:42.443Z,97861.44
2023-02-11T06:04:10.237Z,97860.84
2023-02-11T06:06:37.840Z,97860.88
2023-02-11T06:09:06.642Z,97854.03
2023-02-11T06:11:34.205Z,97848.28
2023-02-11T06:14:02.264Z,97841.81
2023-02-11T06:16:30.054Z,97833.88
2023-02-11T06:18:57.589Z,97836.81
2023-02-11T06:21:30.797Z,97846.69
2023-02-11T06:24:04.043Z,97848.78
2023-02-11T06:26:33.078Z,97853.28
2023-02-11T06:29:00.838Z,97860.34
2023-02-11T06:31:28.741Z,97854.13
2023-02-11T06:33:56.276Z,97851.91
2023-02-11T06:36:23.853Z,97848.59
2023-02-11T06:38:51.972Z,97845.03
2023-02-11T06:41:21.130Z,97852.88
2023-02-11T06:43:50.376Z,97857.31
2023-02-11T06:46:17.919Z,97859.59
2023-02-11T06:48:45.512Z,97868.50
2023-02-11T06:51:14.446Z,97851.91
2023-02-11T06:53:43.707Z,97857.94
2023-02-11T06:56:12.951Z,97846.50
2023-02-11T06:58:41.047Z,97857.44
2023-02-11T07:01:12.678Z,97855.09
2023-02-11T07:03:43.003Z,97846.78
2023-02-11T07:06:14.325Z,97861.13
2023-02-11T07:08:43.047Z,97860.91
2023-02-11T07:11:12.094Z,97849.84
2023-02-11T07:13:39.557Z,97846.97
2023-02-11T07:16:07.999Z,97854.31
2023-02-11T07:18:36.982Z,97859.25
2023-02-11T07:21:05.866Z,97865.97
2023-02-11T07:23:33.664Z,97853.75
2023-02-11T07:26:03.907Z,97861.84
2023-02-11T07:28:31.799Z,97858.69
2023-02-11T07:30:59.457Z,97851.31
2023-02-11T07:33:26.964Z,97847.50
2023-02-11T07:35:55.806Z,97858.88
2023-02-11T07:38:23.293Z,97868.16
2023-02-11T07:40:50.773Z,97869.66
2023-02-11T07:43:18.256Z,97856.09
2023-02-11T07:45:45.740Z,97863.25
2023-02-11T07:48:13.225Z,97874.19
2023-02-11T07:50:40.757Z,97873.56
2023-02-11T07:53:09.577Z,97874.19
2023-02-11T07:55:37.034Z,97869.94
2023-02-11T07:58:04.529Z,97878.50
2023-02-11T08:00:32.000Z,97874.19
2023-02-11T08:02:59.482Z,97876.81
2023-02-11T08:05:27.194Z,97867.28
2023-02-11T08:07:55.492Z,97871.00
2023-02-11T08:10:24.330Z,97882.22
2023-02-11T08:12:51.802Z,97880.19
2023-02-11T08:15:19.297Z,97875.66
2023-02-11T08:17:46.783Z,97866.13
2023-02-11T08:20:14.425Z,97864.66
2023-02-11T08:22:41.973Z,97860.16
2023-02-11T08:25:09.516Z,97862.31
2023-02-11T08:27:38.352Z,97870.78
2023-02-11T08:30:06.699Z,97881.66
2023-02-11T08:32:35.894Z,97881.88
2023-02-11T08:35:03.538Z,97888.75
2023-02-11T08:37:33.066Z,97868.97
2023-02-11T08:40:00.726Z,97878.47
2023-02-11T08:42:28.173Z,97875.75
2023-02-11T08:44:57.077Z,97877.81
2023-02-11T08:47:24.529Z,97880.78
2023-02-11T08:49:52.024Z,97881.31
2023-02-11T08:52:19.509Z,97891.28
2023-02-11T08:54:47.111Z,97876.97
2023-02-11T08:57:14.588Z,97877.09
2023-02-11T08:59:42.078Z,97874.91
2023-02-11T09:02:13.474Z,97883.41
2023-02-11T09:04:41.255Z,97871.81
2023-02-11T09:07:08.798Z,97868.59
2023-02-11T09:09:36.411Z,97875.38
2023-02-11T09:12:03.972Z,97874.94
2023-02-11T09:14:31.463Z,97873.91
2023-02-11T09:16:58.954Z,97867.66
2023-02-11T09:19:27.838Z,97869.25
2023-02-11T09:21:55.367Z,97875.88
2023-02-11T09:24:22.840Z,97874.91
2023-02-11T09:26:50.560Z,97879.63
2023-02-11T09:29:18.085Z,97888.59
2023-02-11T09:31:45.703Z,97884.94
2023-02-11T09:34:15.405Z,97891.53
2023-02-11T09:36:44.213Z,97896.34
2023-02-11T09:39:14.419Z,97884.00
2023-02-11T09:42:17.176Z,97883.50
2023-02-11T09:44:46.785Z,97882.88
2023-02-11T09:47:24.955Z,97877.22
2023-02-11T09:49:58.121Z,97878.84
2023-02-11T09:52:37.914Z,97878.88
2023-02-11T09:55:12.249Z,97880.03
2023-02-11T09:57:39.768Z,97884.34
2023-02-11T10:00:20.396Z,97881.28
2023-02-11T10:03:02.568Z,97889.50
2023-02-11T10:05:44.226Z,97879.69
2023-02-11T10:08:19.975Z,97889.84
2023-02-11T10:10:53.816Z,97888.34
2023-02-11T10:13:36.855Z,97888.09
2023-02-11T10:16:16.440Z,97885.09
2023-02-11T10:19:08.618Z,97890.47
2023-02-11T10:21:46.457Z,97880.13
2023-02-11T10:24:17.405Z,97881.72
2023-02-11T10:26:45.938Z,97884.72
2023-02-11T10:29:27.150Z,97892.88
2023-02-11T10:31:57.261Z,97886.88
2023-02-11T10:34:25.817Z,97878.63
2023-02-11T10:36:53.417Z,97871.69
2023-02-11T10:39:24.781Z,97857.81
2023-02-11T10:41:55.411Z,97857.50
2023-02-11T10:44:29.873Z,97857.50
2023-02-11T10:46:58.300Z,97859.50
2023-02-11T10:49:38.993Z,97852.94
2023-02-11T10:52:19.522Z,97853.38
2023-02-11T10:54:59.742Z,97847.78
2023-02-11T10:57:31.460Z,97841.25
2023-02-11T11:00:03.548Z,97846.88
2023-02-11T11:02:34.662Z,97848.81
2023-02-11T11:05:05.011Z,97848.25
2023-02-11T11:07:34.671Z,97838.34
2023-02-11T11:10:06.026Z,97834.00
2023-02-11T11:12:40.278Z,97832.56
2023-02-11T11:15:21.740Z,97835.56
2023-02-11T11:17:49.923Z,97828.53
2023-02-11T11:20:22.807Z,97837.81
2023-02-11T11:22:52.273Z,97837.03
2023-02-11T11:25:29.362Z,97836.34
2023-02-11T11:28:00.018Z,97836.78
2023-02-11T11:30:34.196Z,97846.63
2023-02-11T11:33:02.414Z,97843.13
2023-02-11T11:35:32.966Z,97837.13
2023-02-11T11:38:03.164Z,97835.44
2023-02-11T11:40:33.813Z,97827.91
2023-02-11T11:43:08.222Z,97832.69
2023-02-11T11:45:35.871Z,97825.63
2023-02-11T11:48:10.617Z,97833.06
2023-02-11T11:50:43.205Z,97830.34
2023-02-11T11:53:17.302Z,97824.00
2023-02-11T11:55:49.790Z,97823.31
2023-02-11T11:58:19.975Z,97817.34
2023-02-11T12:00:55.464Z,97829.28
2023-02-11T12:03:41.456Z,97834.47
2023-02-11T12:06:21.896Z,97822.16
2023-02-11T12:09:00.004Z,97808.06
2023-02-11T12:11:36.776Z,97811.84
2023-02-11T12:14:15.106Z,97803.50
2023-02-11T12:16:51.790Z,97792.41
2023-02-11T12:20:03.784Z,97794.09
2023-02-11T12:22:41.686Z,97801.09
2023-02-11T12:25:27.145Z,97785.28
2023-02-11T12:28:17.346Z,97794.31
2023-02-11T12:30:57.567Z,97793.81
2023-02-11T12:33:41.805Z,97781.69
2023-02-11T12:36:16.116Z,97775.03
2023-02-11T12:38:59.192Z,97777.22
2023-02-11T12:41:58.921Z,97777.84
2023-02-11T12:44:38.874Z,97780.13
2023-02-11T12:47:15.446Z,97763.28
2023-02-11T12:50:05.089Z,97769.28
2023-02-11T12:52:50.182Z,97759.34
2023-02-11T12:55:23.675Z,97769.28
2023-02-11T12:57:52.998Z,97766.34
2023-02-11T13:00:25.717Z,97765.72
2023-02-11T13:03:00.721Z,97748.50
2023-02-11T13:05:32.666Z,97752.41
2023-02-11T13:08:05.618Z,97756.94
2023-02-11T13:10:37.028Z,97756.09
2023-02-11T13:13:17.636Z,97760.22
2023-02-11T13:15:50.950Z,97764.91
2023-02-11T13:18:44.771Z,97762.00
2023-02-11T13:21:33.423Z,97762.44
2023-02-11T13:24:09.954Z,97773.59
2023-02-11T13:26:46.466Z,97774.69
2023-02-11T13:29:26.366Z,97772.25
2023-02-11T13:31:56.878Z,97769.09
2023-02-11T13:34:26.671Z,97777.66
2023-02-11T13:36:58.861Z,97772.63
2023-02-11T13:39:26.440Z,97766.16
2023-02-11T13:42:03.195Z,97762.84
2023-02-11T13:44:33.653Z,97760.81
2023-02-11T13:47:04.881Z,97770.59
2023-02-11T13:49:36.638Z,97768.44
2023-02-11T13:52:07.325Z,97773.66
2023-02-11T13:54:38.664Z,97762.41
2023-02-11T13:57:23.873Z,97769.41
2023-02-11T13:59:53.057Z,97762.84
2023-02-11T14:02:43.300Z,97768.59
2023-02-11T14:05:47.673Z,97758.69
2023-02-11T14:08:37.664Z,97769.41
2023-02-11T14:11:28.059Z,97769.41
2023-02-11T14:14:17.212Z,97763.91
2023-02-11T14:17:24.877Z,97767.31
2023-02-11T14:19:52.645Z,97752.06
2023-02-11T14:22:26.674Z,97750.31
2023-02-11T14:24:57.327Z,97754.75
2023-02-11T14:27:30.369Z,97750.72
2023-02-11T14:30:20.222Z,97754.00
2023-02-11T14:33:01.856Z,97756.94
2023-02-11T14:35:36.471Z,97744.19
2023-02-11T14:38:14.023Z,97737.75
2023-02-11T14:40:51.372Z,97758.75
2023-02-11T14:43:21.872Z,97767.91
2023-02-11T14:45:52.380Z,97758.22
2023-02-11T14:48:21.420Z,97763.41
2023-02-11T14:50:52.876Z,97755.00
2023-02-11T14:53:24.364Z,97754.09
2023-02-11T14:55:53.310Z,97755.44
2023-02-11T14:58:22.768Z,97763.78
2023-02-11T15:00:55.351Z,97760.00
2023-02-11T15:03:28.227Z,97761.63
2023-02-11T15:05:57.365Z,97749.91
2023-02-11T15:08:24.962Z,97737.63
2023-02-11T15:10:54.993Z,97747.00
2023-02-11T15:13:27.109Z,97758.22
2023-02-11T15:16:00.143Z,97766.91
2023-02-11T15:18:34.885Z,97752.28
2023-02-11T15:21:02.489Z,97762.09
2023-02-11T15:23:31.908Z,97757.72
2023-02-11T15:26:04.170Z,97761.47
2023-02-11T15:28:35.145Z,97763.00
2023-02-11T15:31:06.371Z,97762.94
2023-02-11T15:33:34.150Z,97765.28
2023-02-11T15:36:03.933Z,97770.56
2023-02-11T15:38:31.960Z,97783.94
2023-02-11T15:41:02.995Z,97784.78
2023-02-11T15:43:50.669Z,97785.97
2023-02-11T15:46:21.905Z,97794.81
2023-02-11T15:48:51.570Z,97799.31
2023-02-11T15:51:22.702Z,97794.13
2023-02-11T15:53:56.570Z,97793.50
2023-02-11T15:56:29.479Z,97786.91
2023-02-11T15:59:00.012Z,97788.81
2023-02-11T16:01:35.469Z,97785.88
2023-02-11T16:04:04.827Z,97801.78
2023-02-11T16:06:39.105Z,97799.91
2023-02-11T16:09:23.056Z,97789.66
2023-02-11T16:11:59.164Z,97792.31
2023-02-11T16:14:31.685Z,97798.41
2023-02-11T16:17:03.352Z,97793.88
2023-02-11T16:19:32.505Z,97796.31
2023-02-11T16:22:02.931Z,97799.22
2023-02-11T16:24:34.024Z,97808.19
2023-02-11T16:27:02.974Z,97806.66
2023-02-11T16:29:32.451Z,97815.69
2023-02-11T16:32:09.815Z,97817.38
2023-02-11T16:34:38.110Z,97814.16
2023-02-11T16:37:07.021Z,97809.00
2023-02-11T16:39:34.860Z,97818.22
2023-02-11T16:42:02.652Z,97818.00
2023-02-11T16:44:30.681Z,97822.16
2023-02-11T16:47:00.603Z,97819.63
2023-02-11T16:49:32.150Z,97836.13
2023-02-11T16:52:02.134Z,97825.25
2023-02-11T16:54:30.764Z,97834.06
2023-02-11T16:56:58.868Z,97832.38
2023-02-11T16:59:26.626Z,97834.88
2023-02-11T17:01:55.608Z,97840.22
2023-02-11T17:04:27.106Z,97848.69
2023-02-11T17:06:58.241Z,97847.56
2023-02-11T17:09:30.512Z,97847.97
2023-02-11T17:11:58.743Z,97840.00
2023-02-11T17:14:26.225Z,97848.72
2023-02-11T17:16:53.786Z,97849.84
2023-02-11T17:19:22.299Z,97856.81
2023-02-11T17:21:51.568Z,97864.50
2023-02-11T17:24:21.346Z,97869.22
2023-02-11T17:26:49.668Z,97861.22
2023-02-11T17:29:19.135Z,97865.75
2023-02-11T17:31:46.670Z,97865.88
2023-02-11T17:34:14.265Z,97858.72
2023-02-11T17:36:42.193Z,97863.13
2023-02-11T17:39:09.744Z,97859.59
2023-02-11T17:41:39.312Z,97865.19
2023-02-11T17:44:07.836Z,97866.56
2023-02-11T17:46:36.440Z,97870.09
2023-02-11T17:49:04.922Z,97878.16
2023-02-11T17:51:33.989Z,97875.19
2023-02-11T17:54:03.850Z,97870.63
2023-02-11T17:56:34.285Z,97873.69
2023-02-11T17:59:03.682Z,97880.78
2023-02-11T18:01:32.662Z,97890.69
2023-02-11T18:04:00.543Z,97892.75
2023-02-11T18:06:29.073Z,97884.88
2023-02-11T18:08:59.712Z,97886.94
2023-02-11T18:11:27.867Z,97890.84
2023-02-11T18:13:55.386Z,97891.75
2023-02-11T18:16:27.603Z,97885.22
2023-02-11T18:18:55.341Z,97887.56
2023-02-11T18:21:23.373Z,97893.00
2023-02-11T18:23:51.062Z,97896.25
2023-02-11T18:26:20.361Z,97891.00
2023-02-11T18:28:48.856Z,97896.25
2023-02-11T18:31:16.454Z,97887.75
2023-02-11T18:33:47.771Z,97901.00
2023-02-11T18:36:16.765Z,97897.97
2023-02-11T18:38:45.027Z,97897.25
2023-02-11T18:41:13.211Z,97892.34
2023-02-11T18:43:40.994Z,97902.97
2023-02-11T18:46:10.452Z,97907.38
2023-02-11T18:48:38.397Z,97906.06
2023-02-11T18:51:11.403Z,97902.28
2023-02-11T18:53:39.031Z,97903.88
2023-02-11T18:56:11.280Z,97906.44
2023-02-11T18:58:39.359Z,97919.06
2023-02-11T19:01:15.986Z,97910.66
2023-02-11T19:03:43.977Z,97912.69
2023-02-11T19:06:17.332Z,97917.19
2023-02-11T19:08:44.881Z,97925.72
2023-02-11T19:11:12.725Z,97917.78
2023-02-11T19:13:40.282Z,97924.63
2023-02-11T19:16:11.305Z,97921.88
2023-02-11T19:18:39.641Z,97912.63
2023-02-11T19:21:08.464Z,97921.84
2023-02-11T19:23:37.499Z,97934.50
2023-02-11T19:26:06.387Z,97932.88
2023-02-11T19:28:35.223Z,97940.16
2023-02-11T19:31:07.527Z,97939.78
2023-02-11T19:33:35.186Z,97932.63
2023-02-11T19:36:04.219Z,97932.66
2023-02-11T19:38:31.774Z,97936.03
2023-02-11T19:41:00.619Z,97935.41
2023-02-11T19:43:28.550Z,97937.63
2023-02-11T19:45:57.497Z,97936.78
2023-02-11T19:48:25.588Z,97935.78
2023-02-11T19:50:53.332Z,97938.06
2023-02-11T19:53:20.834Z,97928.91
2023-02-11T19:55:48.827Z,97930.22
2023-02-11T19:58:18.571Z,97932.34
2023-02-11T20:00:46.100Z,97932.91
2023-02-11T20:03:13.584Z,97922.06
2023-02-11T20:05:43.372Z,97930.00
2023-02-11T20:08:11.135Z,97919.00
2023-02-11T20:10:38.690Z,97920.25
2023-02-11T20:13:06.508Z,97916.72
2023-02-11T20:15:35.373Z,97918.66
2023-02-11T20:18:02.911Z,97924.75
2023-02-11T20:20:30.399Z,97918.91
2023-02-11T20:22:58.538Z,97920.81
2023-02-11T20:25:26.045Z,97923.09
2023-02-11T20:27:53.552Z,97922.09
2023-02-11T20:30:21.672Z,97924.22
2023-02-11T20:32:50.502Z,97929.63
2023-02-11T20:35:18.059Z,97936.25
2023-02-11T20:37:45.700Z,97940.69
2023-02-11T20:40:13.806Z,97946.06
2023-02-11T20:42:41.296Z,97945.50
2023-02-11T20:45:09.692Z,97941.84
2023-02-11T20:47:38.204Z,97950.88
2023-02-11T20:50:08.831Z,97944.19
2023-02-11T20:52:36.881Z,97936.28
2023-02-11T20:55:04.697Z,97942.59
2023-02-11T20:57:34.975Z,97950.53
2023-02-11T21:00:03.043Z,97952.63
2023-02-11T21:02:31.109Z,97943.91
2023-02-11T21:04:58.566Z,97947.56
2023-02-11T21:07:29.322Z,97940.72
2023-02-11T21:09:56.890Z,97937.66
2023-02-11T21:12:24.822Z,97946.03
2023-02-11T21:14:53.956Z,97932.22
2023-02-11T21:17:21.859Z,97935.25
2023-02-11T21:19:49.352Z,97941.69
2023-02-11T21:22:16.838Z,97943.47
2023-02-11T21:24:45.663Z,97945.22
2023-02-11T21:27:13.308Z,97946.31
2023-02-11T21:29:53.533Z,97948.44
2023-02-11T21:32:21.888Z,97949.53
2023-02-11T21:34:49.443Z,97950.16
2023-02-11T21:37:17.040Z,97961.88
2023-02-11T21:39:45.960Z,97952.72
2023-02-11T21:42:13.421Z,97964.06
2023-02-11T21:44:41.005Z,97970.06
2023-02-11T21:47:08.566Z,97963.03
2023-02-11T21:49:36.087Z,97980.25
2023-02-11T21:52:03.675Z,97973.28
2023-02-11T21:54:32.175Z,97978.28
2023-02-11T21:57:02.997Z,97975.47
2023-02-11T21:59:31.730Z,97979.63
2023-02-11T22:01:59.732Z,97978.97
2023-02-11T22:04:27.358Z,97985.59
2023-02-11T22:06:54.878Z,97986.56
2023-02-11T22:09:22.386Z,97990.88
2023-02-11T22:11:50.240Z,97981.06
2023-02-11T22:14:19.092Z,97993.09
2023-02-11T22:16:46.930Z,97985.50
2023-02-11T22:19:15.319Z,97987.88
2023-02-11T22:21:43.566Z,97980.56
2023-02-11T22:24:11.201Z,97985.81
2023-02-11T22:26:39.358Z,97982.56
2023-02-11T22:29:06.872Z,97983.44
2023-02-11T22:31:36.527Z,97981.56
2023-02-11T22:34:05.003Z,97979.50
2023-02-11T22:36:34.619Z,97990.72
2023-02-11T22:39:03.713Z,97982.84
2023-02-11T22:41:31.743Z,97992.91
2023-02-11T22:43:59.256Z,97999.19
2023-02-11T22:46:27.114Z,97997.34
2023-02-11T22:48:56.011Z,97985.13
2023-02-11T22:51:25.488Z,97986.66
2023-02-11T22:53:54.447Z,97989.28
2023-02-11T22:56:22.864Z,97986.16
2023-02-11T22:58:52.052Z,97983.09
2023-02-11T23:01:20.441Z,97982.75
2023-02-11T23:03:48.290Z,97993.16
2023-02-11T23:06:18.089Z,97998.84
2023-02-11T23:08:45.946Z,97996.81
2023-02-11T23:11:16.462Z,97997.63
2023-02-11T23:13:45.545Z,98001.38
2023-02-11T23:16:15.259Z,97993.34
2023-02-11T23:18:44.346Z,97994.16
2023-02-11T23:21:15.764Z,97998.63
2023-02-11T23:23:45.277Z,97992.94
2023-02-11T23:26:15.495Z,98009.28
2023-02-11T23:28:45.822Z,98007.81
2023-02-11T23:31:15.002Z,98012.59
2023-02-11T23:33:42.675Z,98011.56
2023-02-11T23:36:10.510Z,98006.94
2023-02-11T23:38:38.129Z,98004.63
2023-02-11T23:41:07.300Z,98013.66
2023-02-11T23:43:34.891Z,98014.66
2023-02-11T23:46:02.513Z,98012.03
2023-02-11T23:48:30.010Z,98005.59
2023-02-11T23:50:57.513Z,97993.88
2023-02-11T23:53:25.010Z,98000.59
2023-02-11T23:55:52.752Z,98000.66
2023-02-11T23:58:22.025Z,98019.75
